METAR Data
IDs: Format: Raw Decoded Include TAF

Data at: 0659 UTC 28 Sep 2022

KDRT 280653Z AUTO 00000KT 10SM CLR 17/12 A3018 RMK AO2 SLP211 T01720117 $